createdAt,value
2018-12-12T00:00:08.947Z,1013.62
2018-12-12T00:01:08.940Z,1013.65
2018-12-12T00:02:08.933Z,1013.60
2018-12-12T00:03:08.915Z,1013.60
2018-12-12T00:04:08.906Z,1013.59
2018-12-12T00:05:08.897Z,1013.66
2018-12-12T00:06:08.887Z,1013.65
2018-12-12T00:07:08.883Z,1013.65
2018-12-12T00:08:08.863Z,1013.63
2018-12-12T00:09:08.851Z,1013.63
2018-12-12T00:10:08.842Z,1013.63
2018-12-12T00:11:08.835Z,1013.56
2018-12-12T00:12:08.828Z,1013.56
2018-12-12T00:13:08.808Z,1013.61
2018-12-12T00:14:08.798Z,1013.55
2018-12-12T00:15:08.790Z,1013.53
2018-12-12T00:16:08.782Z,1013.54
2018-12-12T00:17:08.775Z,1013.57
2018-12-12T00:18:08.754Z,1013.58
2018-12-12T00:19:08.745Z,1013.62
2018-12-12T00:20:08.733Z,1013.59
2018-12-12T00:21:08.722Z,1013.64
2018-12-12T00:22:08.720Z,1013.61
2018-12-12T00:23:08.701Z,1013.65
2018-12-12T00:24:08.691Z,1013.64
2018-12-12T00:25:08.682Z,1013.61
2018-12-12T00:26:08.669Z,1013.63
2018-12-12T00:27:08.667Z,1013.63
2018-12-12T00:28:08.647Z,1013.65
2018-12-12T00:29:08.638Z,1013.68
2018-12-12T00:30:08.626Z,1013.69
2018-12-12T00:31:08.621Z,1013.65
2018-12-12T00:32:08.635Z,1013.66
2018-12-12T00:33:08.594Z,1013.67
2018-12-12T00:34:08.585Z,1013.63
2018-12-12T00:35:08.576Z,1013.65
2018-12-12T00:36:08.561Z,1013.65
2018-12-12T00:37:08.554Z,1013.68
2018-12-12T00:38:08.549Z,1013.68
2018-12-12T00:39:08.531Z,1013.65
2018-12-12T00:40:08.523Z,1013.68
2018-12-12T00:41:08.508Z,1013.69
2018-12-12T00:42:08.497Z,1013.71
2018-12-12T00:43:08.498Z,1013.67
2018-12-12T00:44:08.478Z,1013.71
2018-12-12T00:45:08.468Z,1013.76
2018-12-12T00:46:08.461Z,1013.79
2018-12-12T00:47:08.447Z,1013.79
2018-12-12T00:48:08.443Z,1013.83
2018-12-12T00:49:08.422Z,1013.78
2018-12-12T00:50:08.417Z,1013.79
2018-12-12T00:51:08.400Z,1013.78
2018-12-12T00:52:08.390Z,1013.80
2018-12-12T00:53:08.388Z,1013.82
2018-12-12T00:54:08.371Z,1013.78
2018-12-12T00:55:08.357Z,1013.84
2018-12-12T00:56:08.346Z,1013.84
2018-12-12T00:57:08.340Z,1013.81
2018-12-12T00:58:08.340Z,1013.85
2018-12-12T00:59:08.316Z,1013.85
2018-12-12T01:00:08.304Z,1013.85
2018-12-12T01:01:08.294Z,1013.89
2018-12-12T01:02:08.281Z,1013.88
2018-12-12T01:03:08.283Z,1013.94
2018-12-12T01:04:08.263Z,1013.91
2018-12-12T01:05:08.251Z,1013.91
2018-12-12T01:06:08.239Z,1013.90
2018-12-12T01:07:08.227Z,1013.98
2018-12-12T01:08:08.226Z,1013.93
2018-12-12T01:09:08.211Z,1013.95
2018-12-12T01:10:08.197Z,1013.94
2018-12-12T01:11:08.185Z,1013.99
2018-12-12T01:12:08.174Z,1014.00
2018-12-12T01:13:08.172Z,1014.02
2018-12-12T01:14:08.154Z,1013.96
2018-12-12T01:15:08.145Z,1014.01
2018-12-12T01:16:08.132Z,1014.02
2018-12-12T01:17:08.124Z,1014.06
2018-12-12T01:18:08.142Z,1014.01
2018-12-12T01:19:08.107Z,1014.06
2018-12-12T01:20:08.087Z,1014.08
2018-12-12T01:21:08.076Z,1014.04
2018-12-12T01:22:08.066Z,1014.08
2018-12-12T01:23:08.062Z,1014.09
2018-12-12T01:24:08.054Z,1014.11
2018-12-12T01:25:08.034Z,1014.10
2018-12-12T01:26:08.023Z,1014.14
2018-12-12T01:27:08.012Z,1014.19
2018-12-12T01:28:08.004Z,1014.13
2018-12-12T01:29:07.999Z,1014.21
2018-12-12T01:30:07.979Z,1014.20
2018-12-12T01:31:07.969Z,1014.18
2018-12-12T01:32:07.972Z,1014.14
2018-12-12T01:33:07.947Z,1014.24
2018-12-12T01:34:07.944Z,1014.23
2018-12-12T01:35:07.932Z,1014.22
2018-12-12T01:36:07.914Z,1014.25
2018-12-12T01:37:07.905Z,1014.23
2018-12-12T01:38:07.897Z,1014.24
2018-12-12T01:39:07.919Z,1014.28
2018-12-12T01:40:07.873Z,1014.25
2018-12-12T01:41:07.861Z,1014.28
2018-12-12T01:42:07.851Z,1014.28
2018-12-12T01:43:07.840Z,1014.30
2018-12-12T01:44:07.834Z,1014.24
2018-12-12T01:45:07.832Z,1014.31
2018-12-12T01:46:07.808Z,1014.25
2018-12-12T01:47:07.797Z,1014.20
2018-12-12T01:48:07.789Z,1014.28
2018-12-12T01:49:07.775Z,1014.28
2018-12-12T01:50:07.774Z,1014.30
2018-12-12T01:51:07.754Z,1014.29
2018-12-12T01:52:07.744Z,1014.32
2018-12-12T01:53:07.732Z,1014.32
2018-12-12T01:54:07.721Z,1014.37
2018-12-12T01:55:07.720Z,1014.36
2018-12-12T01:56:07.703Z,1014.37
2018-12-12T01:57:07.688Z,1014.39
2018-12-12T01:58:07.678Z,1014.35
2018-12-12T01:59:07.668Z,1014.34
2018-12-12T02:00:07.665Z,1014.37
2018-12-12T02:01:07.651Z,1014.35
2018-12-12T02:02:07.636Z,1014.37
2018-12-12T02:03:07.624Z,1014.35
2018-12-12T02:04:07.613Z,1014.36
2018-12-12T02:05:07.610Z,1014.32
2018-12-12T02:06:07.592Z,1014.32
2018-12-12T02:07:07.584Z,1014.39
2018-12-12T02:08:07.574Z,1014.40
2018-12-12T02:09:07.560Z,1014.38
2018-12-12T02:10:07.559Z,1014.40
2018-12-12T02:11:07.537Z,1014.45
2018-12-12T02:12:07.527Z,1014.46
2018-12-12T02:13:07.519Z,1014.53
2018-12-12T02:14:07.503Z,1014.49
2018-12-12T02:15:07.502Z,1014.55
2018-12-12T02:16:07.482Z,1014.52
2018-12-12T02:17:07.475Z,1014.51
2018-12-12T02:18:07.462Z,1014.49
2018-12-12T02:19:07.453Z,1014.52
2018-12-12T02:20:07.480Z,1014.54
2018-12-12T02:21:07.454Z,1014.57
2018-12-12T02:22:07.417Z,1014.59
2018-12-12T02:23:07.407Z,1014.64
2018-12-12T02:24:07.398Z,1014.60
2018-12-12T02:25:07.386Z,1014.59
2018-12-12T02:26:07.386Z,1014.61
2018-12-12T02:27:07.364Z,1014.62
2018-12-12T02:28:07.353Z,1014.61
2018-12-12T02:29:07.342Z,1014.62
2018-12-12T02:30:07.334Z,1014.61
2018-12-12T02:31:07.331Z,1014.61
2018-12-12T02:32:07.310Z,1014.63
2018-12-12T02:33:07.299Z,1014.64
2018-12-12T02:34:07.288Z,1014.66
2018-12-12T02:35:07.278Z,1014.65
2018-12-12T02:36:07.275Z,1014.62
2018-12-12T02:37:07.256Z,1014.65
2018-12-12T02:38:07.250Z,1014.70
2018-12-12T02:39:07.236Z,1014.74
2018-12-12T02:40:07.222Z,1014.76
2018-12-12T02:41:07.220Z,1014.75
2018-12-12T02:42:07.201Z,1014.78
2018-12-12T02:43:07.192Z,1014.72
2018-12-12T02:44:07.185Z,1014.77
2018-12-12T02:45:07.172Z,1014.75
2018-12-12T02:46:07.167Z,1014.78
2018-12-12T02:47:07.149Z,1014.81
2018-12-12T02:48:07.136Z,1014.79
2018-12-12T02:49:07.126Z,1014.80
2018-12-12T02:50:07.115Z,1014.84
2018-12-12T02:51:07.112Z,1014.85
2018-12-12T02:52:07.099Z,1014.82
2018-12-12T02:53:07.083Z,1014.83
2018-12-12T02:54:07.072Z,1014.86
2018-12-12T02:55:07.062Z,1014.87
2018-12-12T02:56:07.079Z,1014.89
2018-12-12T02:57:07.038Z,1014.86
2018-12-12T02:58:07.031Z,1014.88
2018-12-12T02:59:07.020Z,1014.88
2018-12-12T03:00:07.007Z,1014.87
2018-12-12T03:01:07.005Z,1014.92
2018-12-12T03:02:06.994Z,1014.91
2018-12-12T03:03:06.974Z,1014.90
2018-12-12T03:04:06.964Z,1014.93
2018-12-12T03:05:06.963Z,1014.91
2018-12-12T03:06:06.943Z,1014.94
2018-12-12T03:07:06.938Z,1014.90
2018-12-12T03:08:06.923Z,1014.95
2018-12-12T03:09:06.909Z,1014.94
2018-12-12T03:10:06.904Z,1014.95
2018-12-12T03:11:06.888Z,1014.91
2018-12-12T03:12:06.885Z,1014.93
2018-12-12T03:13:06.865Z,1014.93
2018-12-12T03:14:06.854Z,1014.98
2018-12-12T03:15:06.845Z,1014.95
2018-12-12T03:16:06.833Z,1015.01
2018-12-12T03:17:06.834Z,1014.96
2018-12-12T03:18:06.812Z,1014.99
2018-12-12T03:19:06.807Z,1014.93
2018-12-12T03:20:06.791Z,1014.95
2018-12-12T03:21:06.778Z,1015.01
2018-12-12T03:22:06.779Z,1015.00
2018-12-12T03:23:06.759Z,1015.03
2018-12-12T03:24:06.749Z,1015.01
2018-12-12T03:25:06.740Z,1015.05
2018-12-12T03:26:06.725Z,1015.08
2018-12-12T03:27:06.726Z,1015.07
2018-12-12T03:28:06.709Z,1015.12
2018-12-12T03:29:06.693Z,1015.14
2018-12-12T03:30:06.685Z,1015.14
2018-12-12T03:31:06.671Z,1015.16
2018-12-12T03:32:06.661Z,1015.18
2018-12-12T03:33:06.663Z,1015.19
2018-12-12T03:34:06.643Z,1015.23
2018-12-12T03:35:06.628Z,1015.25
2018-12-12T03:36:06.616Z,1015.28
2018-12-12T03:37:06.604Z,1015.26
2018-12-12T03:38:06.608Z,1015.24
2018-12-12T03:39:06.589Z,1015.28
2018-12-12T03:40:06.572Z,1015.26
2018-12-12T03:41:06.562Z,1015.27
2018-12-12T03:42:06.552Z,1015.31
2018-12-12T03:43:06.547Z,1015.28
2018-12-12T03:44:06.529Z,1015.32
2018-12-12T03:45:06.518Z,1015.36
2018-12-12T03:46:06.508Z,1015.34
2018-12-12T03:47:06.499Z,1015.40
2018-12-12T03:48:06.496Z,1015.41
2018-12-12T03:49:06.475Z,1015.40
2018-12-12T03:50:06.464Z,1015.41
2018-12-12T03:51:06.457Z,1015.42
2018-12-12T03:52:06.443Z,1015.45
2018-12-12T03:53:06.441Z,1015.47
2018-12-12T03:54:06.422Z,1015.42
2018-12-12T03:55:06.411Z,1015.48
2018-12-12T03:56:06.399Z,1015.47
2018-12-12T03:57:06.394Z,1015.51
2018-12-12T03:58:06.387Z,1015.54
2018-12-12T03:59:06.366Z,1015.59
2018-12-12T04:00:06.361Z,1015.58
2018-12-12T04:01:06.347Z,1015.58
2018-12-12T04:02:06.335Z,1015.63
2018-12-12T04:03:06.622Z,1015.63
2018-12-12T04:04:06.316Z,1015.66
2018-12-12T04:05:06.303Z,1015.64
2018-12-12T04:06:06.291Z,1015.71
2018-12-12T04:07:06.281Z,1015.74
2018-12-12T04:08:06.276Z,1015.74
2018-12-12T04:09:06.271Z,1015.75
2018-12-12T04:10:06.249Z,1015.79
2018-12-12T04:11:06.237Z,1015.76
2018-12-12T04:12:06.227Z,1015.78
2018-12-12T04:13:06.214Z,1015.75
2018-12-12T04:14:06.212Z,1015.80
2018-12-12T04:15:06.192Z,1015.82
2018-12-12T04:16:06.185Z,1015.84
2018-12-12T04:17:06.172Z,1015.86
2018-12-12T04:18:06.159Z,1015.79
2018-12-12T04:19:06.158Z,1015.78
2018-12-12T04:20:06.139Z,1015.81
2018-12-12T04:21:06.130Z,1015.84
2018-12-12T04:22:06.116Z,1015.83
2018-12-12T04:23:06.109Z,1015.80
2018-12-12T04:24:06.103Z,1015.84
2018-12-12T04:25:06.084Z,1015.83
2018-12-12T04:26:06.077Z,1015.85
2018-12-12T04:27:06.065Z,1015.85
2018-12-12T04:28:06.053Z,1015.86
2018-12-12T04:29:06.050Z,1015.86
2018-12-12T04:30:06.036Z,1015.88
2018-12-12T04:31:06.021Z,1015.90
2018-12-12T04:32:06.017Z,1015.91
2018-12-12T04:33:05.997Z,1015.94
2018-12-12T04:34:05.994Z,1015.92
2018-12-12T04:35:05.977Z,1015.94
2018-12-12T04:36:05.968Z,1015.96
2018-12-12T04:37:05.955Z,1015.92
2018-12-12T04:38:05.948Z,1015.96
2018-12-12T04:39:05.941Z,1015.94
2018-12-12T04:40:05.922Z,1015.92
2018-12-12T04:41:05.910Z,1015.95
2018-12-12T04:42:05.899Z,1015.98
2018-12-12T04:43:05.890Z,1015.95
2018-12-12T04:44:05.891Z,1015.97
2018-12-12T04:45:05.867Z,1015.97
2018-12-12T04:46:05.857Z,1015.95
2018-12-12T04:47:05.846Z,1015.96
2018-12-12T04:48:05.834Z,1015.93
2018-12-12T04:49:05.833Z,1015.98
2018-12-12T04:50:05.812Z,1015.99
2018-12-12T04:51:05.817Z,1016.01
2018-12-12T04:52:05.791Z,1016.02
2018-12-12T04:53:05.785Z,1015.99
2018-12-12T04:54:05.778Z,1015.95
2018-12-12T04:55:05.764Z,1015.99
2018-12-12T04:56:05.748Z,1015.93
2018-12-12T04:57:05.737Z,1015.95
2018-12-12T04:58:05.726Z,1015.97
2018-12-12T04:59:05.745Z,1015.93
2018-12-12T05:00:05.709Z,1015.99
2018-12-12T05:01:05.694Z,1016.00
2018-12-12T05:02:05.685Z,1015.95
2018-12-12T05:03:05.675Z,1015.98
2018-12-12T05:04:05.665Z,1016.03
2018-12-12T05:05:05.659Z,1015.98
2018-12-12T05:06:05.641Z,1015.99
2018-12-12T05:07:05.629Z,1016.00
2018-12-12T05:08:05.622Z,1015.99
2018-12-12T05:09:05.608Z,1016.01
2018-12-12T05:10:05.606Z,1016.04
2018-12-12T05:11:05.587Z,1016.01
2018-12-12T05:12:05.579Z,1016.02
2018-12-12T05:13:05.565Z,1016.11
2018-12-12T05:14:05.554Z,1016.08
2018-12-12T05:15:05.552Z,1016.10
2018-12-12T05:16:05.531Z,1016.08
2018-12-12T05:17:05.521Z,1016.13
2018-12-12T05:18:05.515Z,1016.15
2018-12-12T05:19:05.504Z,1016.17
2018-12-12T05:20:05.495Z,1016.19
2018-12-12T05:21:05.478Z,1016.20
2018-12-12T05:22:05.467Z,1016.20
2018-12-12T05:23:05.457Z,1016.23
2018-12-12T05:24:05.449Z,1016.24
2018-12-12T05:25:05.443Z,1016.23
2018-12-12T05:26:05.422Z,1016.25
2018-12-12T05:27:05.413Z,1016.27
2018-12-12T05:28:05.404Z,1016.23
2018-12-12T05:29:05.395Z,1016.29
2018-12-12T05:30:05.391Z,1016.26
2018-12-12T05:31:05.371Z,1016.29
2018-12-12T05:32:05.359Z,1016.26
2018-12-12T05:33:05.350Z,1016.29
2018-12-12T05:34:05.385Z,1016.29
2018-12-12T05:35:05.340Z,1016.28
2018-12-12T05:36:05.318Z,1016.28
2018-12-12T05:37:05.304Z,1016.31
2018-12-12T05:38:05.295Z,1016.32
2018-12-12T05:39:05.282Z,1016.31
2018-12-12T05:40:05.280Z,1016.37
2018-12-12T05:41:05.263Z,1016.36
2018-12-12T05:42:05.250Z,1016.37
2018-12-12T05:43:05.239Z,1016.37
2018-12-12T05:44:05.228Z,1016.33
2018-12-12T05:45:05.226Z,1016.35
2018-12-12T05:46:05.209Z,1016.42
2018-12-12T05:47:05.198Z,1016.36
2018-12-12T05:48:05.185Z,1016.38
2018-12-12T05:49:05.173Z,1016.34
2018-12-12T05:50:05.170Z,1016.34
2018-12-12T05:51:05.154Z,1016.42
2018-12-12T05:52:05.142Z,1016.44
2018-12-12T05:53:05.238Z,1016.39
2018-12-12T05:54:05.121Z,1016.43
2018-12-12T05:55:05.122Z,1016.44
2018-12-12T05:56:05.100Z,1016.40
2018-12-12T05:57:05.093Z,1016.48
2018-12-12T05:58:05.076Z,1016.49
2018-12-12T05:59:05.068Z,1016.46
2018-12-12T06:00:05.088Z,1016.38
2018-12-12T06:01:05.046Z,1016.45
2018-12-12T06:02:05.036Z,1016.40
2018-12-12T06:03:05.021Z,1016.46
2018-12-12T06:04:05.012Z,1016.46
2018-12-12T06:05:05.001Z,1016.44
2018-12-12T06:06:05.002Z,1016.51
2018-12-12T06:07:04.980Z,1016.45
2018-12-12T06:08:04.968Z,1016.49
2018-12-12T06:09:04.958Z,1016.53
2018-12-12T06:10:04.948Z,1016.57
2018-12-12T06:11:04.945Z,1016.55
2018-12-12T06:12:04.929Z,1016.60
2018-12-12T06:13:04.915Z,1016.61
2018-12-12T06:14:04.903Z,1016.62
2018-12-12T06:15:04.893Z,1016.64
2018-12-12T06:16:04.890Z,1016.62
2018-12-12T06:17:04.873Z,1016.65
2018-12-12T06:18:04.861Z,1016.71
2018-12-12T06:19:04.849Z,1016.69
2018-12-12T06:20:04.840Z,1016.70
2018-12-12T06:21:04.837Z,1016.73
2018-12-12T06:22:04.822Z,1016.71
2018-12-12T06:23:04.811Z,1016.75
2018-12-12T06:24:04.795Z,1016.78
2018-12-12T06:25:04.786Z,1016.72
2018-12-12T06:26:04.782Z,1016.72
2018-12-12T06:27:04.771Z,1016.73
2018-12-12T06:28:04.752Z,1016.76
2018-12-12T06:29:04.742Z,1016.78
2018-12-12T06:30:04.730Z,1016.82
2018-12-12T06:31:04.728Z,1016.77
2018-12-12T06:32:04.709Z,1016.78
2018-12-12T06:33:04.699Z,1016.80
2018-12-12T06:34:04.688Z,1016.84
2018-12-12T06:35:04.677Z,1016.85
2018-12-12T06:36:04.851Z,1016.80
2018-12-12T06:37:04.655Z,1016.81
2018-12-12T06:38:04.644Z,1016.82
2018-12-12T06:39:04.633Z,1016.85
2018-12-12T06:40:04.622Z,1016.87
2018-12-12T06:41:04.611Z,1016.89
2018-12-12T06:42:04.610Z,1016.89
2018-12-12T06:43:04.590Z,1016.90
2018-12-12T06:44:04.579Z,1016.97
2018-12-12T06:45:04.571Z,1016.96
2018-12-12T06:46:04.558Z,1016.97
2018-12-12T06:47:04.555Z,1016.98
2018-12-12T06:48:04.536Z,1016.98
2018-12-12T06:49:04.526Z,1017.01
2018-12-12T06:50:04.519Z,1017.06
2018-12-12T06:51:04.502Z,1017.05
2018-12-12T06:52:04.500Z,1017.06
2018-12-12T06:53:04.482Z,1017.07
2018-12-12T06:54:04.470Z,1017.07
2018-12-12T06:55:04.459Z,1017.08
2018-12-12T06:56:04.448Z,1017.16
2018-12-12T06:57:04.448Z,1017.13
2018-12-12T06:58:04.426Z,1017.12
2018-12-12T06:59:04.415Z,1017.09
2018-12-12T07:00:04.405Z,1017.07
2018-12-12T07:01:04.397Z,1017.12
2018-12-12T07:02:04.393Z,1017.12
2018-12-12T07:03:04.374Z,1017.13
2018-12-12T07:04:04.361Z,1017.17
2018-12-12T07:05:04.353Z,1017.16
2018-12-12T07:06:04.339Z,1017.15
2018-12-12T07:07:04.342Z,1017.14
2018-12-12T07:08:04.318Z,1017.19
2018-12-12T07:09:04.308Z,1017.20
2018-12-12T07:10:04.298Z,1017.22
2018-12-12T07:11:04.286Z,1017.20
2018-12-12T07:12:04.282Z,1017.28
2018-12-12T07:13:04.264Z,1017.23
2018-12-12T07:14:04.258Z,1017.22
2018-12-12T07:15:04.244Z,1017.28
2018-12-12T07:16:04.231Z,1017.28
2018-12-12T07:17:04.263Z,1017.31
2018-12-12T07:18:04.212Z,1017.36
2018-12-12T07:19:04.203Z,1017.37
2018-12-12T07:20:04.189Z,1017.36
2018-12-12T07:21:04.178Z,1017.35
2018-12-12T07:22:04.167Z,1017.35
2018-12-12T07:23:04.165Z,1017.32
2018-12-12T07:24:04.146Z,1017.36
2018-12-12T07:25:04.137Z,1017.34
2018-12-12T07:26:04.125Z,1017.35
2018-12-12T07:27:04.114Z,1017.39
2018-12-12T07:28:04.209Z,1017.37
2018-12-12T07:29:04.093Z,1017.38
2018-12-12T07:30:04.082Z,1017.42
2018-12-12T07:31:04.071Z,1017.43
2018-12-12T07:32:04.060Z,1017.45
2018-12-12T07:33:04.057Z,1017.47
2018-12-12T07:34:04.039Z,1017.48
2018-12-12T07:35:04.029Z,1017.48
2018-12-12T07:36:04.019Z,1017.50
2018-12-12T07:37:04.006Z,1017.48
2018-12-12T07:38:04.032Z,1017.45
2018-12-12T07:39:03.988Z,1017.44
2018-12-12T07:40:03.977Z,1017.50
2018-12-12T07:41:03.964Z,1017.52
2018-12-12T07:42:03.953Z,1017.51
2018-12-12T07:43:03.945Z,1017.54
2018-12-12T07:44:03.940Z,1017.51
2018-12-12T07:45:03.920Z,1017.50
2018-12-12T07:46:03.910Z,1017.54
2018-12-12T07:47:03.900Z,1017.52
2018-12-12T07:48:03.891Z,1017.51
2018-12-12T07:49:03.885Z,1017.58
2018-12-12T07:50:03.912Z,1017.54
2018-12-12T07:51:03.856Z,1017.52
2018-12-12T07:52:03.845Z,1017.51
2018-12-12T07:53:03.838Z,1017.50
2018-12-12T07:54:03.833Z,1017.51
2018-12-12T07:55:03.813Z,1017.55
2018-12-12T07:56:03.804Z,1017.60
2018-12-12T07:57:03.791Z,1017.67
2018-12-12T07:58:03.784Z,1017.73
2018-12-12T07:59:03.781Z,1017.69
2018-12-12T08:00:03.759Z,1017.74
2018-12-12T08:01:03.751Z,1017.75
2018-12-12T08:02:03.739Z,1017.70
2018-12-12T08:03:06.220Z,1017.71
2018-12-12T08:04:03.726Z,1017.72
2018-12-12T08:05:03.706Z,1017.73
2018-12-12T08:06:03.696Z,1017.81
2018-12-12T08:07:03.687Z,1017.79
2018-12-12T08:08:03.676Z,1017.81
2018-12-12T08:09:03.675Z,1017.79
2018-12-12T08:10:03.652Z,1017.79
2018-12-12T08:11:03.641Z,1017.82
2018-12-12T08:12:03.642Z,1017.77
2018-12-12T08:13:03.626Z,1017.83
2018-12-12T08:14:03.618Z,1017.86
2018-12-12T08:15:03.603Z,1017.83
2018-12-12T08:16:03.588Z,1017.79
2018-12-12T08:17:03.577Z,1017.80
2018-12-12T08:18:03.872Z,1017.78
2018-12-12T08:19:03.615Z,1017.80
2018-12-12T08:20:03.544Z,1017.83
2018-12-12T08:21:03.534Z,1017.86
2018-12-12T08:22:03.526Z,1017.84
2018-12-12T08:23:03.512Z,1017.82
2018-12-12T08:24:03.538Z,1017.85
2018-12-12T08:25:03.490Z,1017.87
2018-12-12T08:26:03.480Z,1017.85
2018-12-12T08:27:03.469Z,1017.80
2018-12-12T08:28:03.463Z,1017.88
2018-12-12T08:29:03.448Z,1017.81
2018-12-12T08:30:03.452Z,1017.78
2018-12-12T08:31:03.425Z,1017.82
2018-12-12T08:32:03.415Z,1017.77
2018-12-12T08:33:03.404Z,1017.75
2018-12-12T08:34:03.393Z,1017.78
2018-12-12T08:35:03.397Z,1017.75
2018-12-12T08:36:03.375Z,1017.79
2018-12-12T08:37:03.361Z,1017.75
2018-12-12T08:38:03.350Z,1017.79
2018-12-12T08:39:03.340Z,1017.82
2018-12-12T08:40:03.337Z,1017.85
2018-12-12T08:41:03.319Z,1017.84
2018-12-12T08:42:03.307Z,1017.81
2018-12-12T08:43:03.296Z,1017.85
2018-12-12T08:44:03.285Z,1017.84
2018-12-12T08:45:03.285Z,1017.89
2018-12-12T08:46:03.265Z,1017.87
2018-12-12T08:47:03.257Z,1017.92
2018-12-12T08:48:03.242Z,1017.90
2018-12-12T08:49:03.231Z,1017.92
2018-12-12T08:50:03.233Z,1017.95
2018-12-12T08:51:03.218Z,1017.93
2018-12-12T08:52:03.199Z,1017.95
2018-12-12T08:53:03.187Z,1017.91
2018-12-12T08:54:03.178Z,1017.94
2018-12-12T08:55:03.175Z,1017.99
2018-12-12T08:56:03.479Z,1017.93
2018-12-12T08:57:03.145Z,1018.00
2018-12-12T08:58:03.134Z,1017.96
2018-12-12T08:59:03.124Z,1017.97
2018-12-12T09:00:03.122Z,1017.97
2018-12-12T09:01:03.101Z,1018.04
2018-12-12T09:02:03.091Z,1018.00
2018-12-12T09:03:03.079Z,1018.05
2018-12-12T09:04:03.073Z,1018.10
2018-12-12T09:05:03.067Z,1018.07
2018-12-12T09:06:03.049Z,1018.08
2018-12-12T09:07:03.036Z,1018.11
2018-12-12T09:08:03.026Z,1018.10
2018-12-12T09:09:03.015Z,1018.12
2018-12-12T09:10:03.012Z,1018.17
2018-12-12T09:11:02.995Z,1018.16
2018-12-12T09:12:02.982Z,1018.18
2018-12-12T09:13:02.971Z,1018.15
2018-12-12T09:14:02.960Z,1018.13
2018-12-12T09:15:02.958Z,1018.24
2018-12-12T09:16:03.011Z,1018.19
2018-12-12T09:17:09.398Z,1018.20
2018-12-12T09:18:03.920Z,1018.19
2018-12-12T09:19:02.906Z,1018.19
2018-12-12T09:20:02.931Z,1018.23
2018-12-12T09:21:02.885Z,1018.24
2018-12-12T09:22:02.923Z,1018.24
2018-12-12T09:23:02.882Z,1018.24
2018-12-12T09:24:02.852Z,1018.22
2018-12-12T09:25:02.841Z,1018.28
2018-12-12T09:26:02.841Z,1018.26
2018-12-12T09:27:02.822Z,1018.22
2018-12-12T09:28:02.808Z,1018.24
2018-12-12T09:29:02.799Z,1018.22
2018-12-12T09:30:02.788Z,1018.21
2018-12-12T09:31:02.790Z,1018.16
2018-12-12T09:32:02.766Z,1018.21
2018-12-12T09:33:02.758Z,1018.19
2018-12-12T09:34:02.745Z,1018.17
2018-12-12T09:35:02.734Z,1018.17
2018-12-12T09:36:02.732Z,1018.16
2018-12-12T09:37:02.711Z,1018.18
2018-12-12T09:38:02.701Z,1018.18
2018-12-12T09:39:02.694Z,1018.23
2018-12-12T09:40:02.678Z,1018.25
2018-12-12T09:41:02.677Z,1018.20
2018-12-12T09:42:02.658Z,1018.22
2018-12-12T09:43:02.661Z,1018.29
2018-12-12T09:44:02.641Z,1018.28
2018-12-12T09:45:02.629Z,1018.24
2018-12-12T09:46:02.652Z,1018.23
2018-12-12T09:47:02.604Z,1018.24
2018-12-12T09:48:02.593Z,1018.21
2018-12-12T09:49:02.582Z,1018.22
2018-12-12T09:50:02.571Z,1018.25
2018-12-12T09:51:07.021Z,1018.33
2018-12-12T09:52:03.558Z,1018.36
2018-12-12T09:53:02.539Z,1018.33
2018-12-12T09:54:02.528Z,1018.27
2018-12-12T09:55:02.518Z,1018.34
2018-12-12T09:56:02.510Z,1018.32
2018-12-12T09:57:02.506Z,1018.34
2018-12-12T09:58:02.486Z,1018.34
2018-12-12T09:59:02.479Z,1018.39
2018-12-12T10:00:02.465Z,1018.39
2018-12-12T10:01:02.458Z,1018.39
2018-12-12T10:02:02.451Z,1018.38
2018-12-12T10:03:02.433Z,1018.35
2018-12-12T10:04:02.422Z,1018.41
2018-12-12T10:05:02.410Z,1018.34
2018-12-12T10:06:02.404Z,1018.35
2018-12-12T10:07:02.398Z,1018.29
2018-12-12T10:08:02.384Z,1018.34
2018-12-12T10:09:02.371Z,1018.35
2018-12-12T10:10:02.360Z,1018.35
2018-12-12T10:11:02.347Z,1018.32
2018-12-12T10:12:02.349Z,1018.32
2018-12-12T10:13:02.328Z,1018.29
2018-12-12T10:14:02.329Z,1018.29
2018-12-12T10:15:02.303Z,1018.27
2018-12-12T10:16:02.294Z,1018.33
2018-12-12T10:17:02.295Z,1018.31
2018-12-12T10:18:02.273Z,1018.40
2018-12-12T10:19:02.262Z,1018.35
2018-12-12T10:20:02.267Z,1018.33
2018-12-12T10:21:02.241Z,1018.36
2018-12-12T10:22:02.238Z,1018.39
2018-12-12T10:23:02.220Z,1018.31
2018-12-12T10:24:02.257Z,1018.30
2018-12-12T10:25:02.200Z,1018.32
2018-12-12T10:26:02.197Z,1018.30
2018-12-12T10:27:02.186Z,1018.32
2018-12-12T10:28:02.168Z,1018.27
2018-12-12T10:29:02.156Z,1018.27
2018-12-12T10:30:02.145Z,1018.29
2018-12-12T10:31:02.136Z,1018.34
2018-12-12T10:32:02.156Z,1018.33
2018-12-12T10:33:02.113Z,1018.33
2018-12-12T10:34:02.102Z,1018.33
2018-12-12T10:35:02.095Z,1018.33
2018-12-12T10:36:02.082Z,1018.33
2018-12-12T10:37:02.077Z,1018.33
2018-12-12T10:38:02.077Z,1018.34
2018-12-12T10:39:02.048Z,1018.35
2018-12-12T10:40:02.039Z,1018.34
2018-12-12T10:41:02.029Z,1018.34
2018-12-12T10:42:02.017Z,1018.37
2018-12-12T10:43:02.014Z,1018.32
2018-12-12T10:44:01.995Z,1018.35
2018-12-12T10:45:01.986Z,1018.32
2018-12-12T10:46:01.975Z,1018.32
2018-12-12T10:47:01.967Z,1018.39
2018-12-12T10:48:01.964Z,1018.37
2018-12-12T10:49:01.950Z,1018.42
2018-12-12T10:50:01.936Z,1018.42
2018-12-12T10:51:01.920Z,1018.37
2018-12-12T10:52:01.916Z,1018.43
2018-12-12T10:53:01.910Z,1018.40
2018-12-12T10:54:01.892Z,1018.44
2018-12-12T10:55:01.884Z,1018.42
2018-12-12T10:56:01.875Z,1018.41
2018-12-12T10:57:01.859Z,1018.40
2018-12-12T10:58:01.855Z,1018.43
2018-12-12T10:59:01.839Z,1018.40
2018-12-12T11:00:01.841Z,1018.49
2018-12-12T11:01:01.825Z,1018.45
2018-12-12T11:02:01.809Z,1018.48
2018-12-12T11:03:01.803Z,1018.43
2018-12-12T11:04:01.783Z,1018.45
2018-12-12T11:05:01.779Z,1018.45
2018-12-12T11:06:01.769Z,1018.44
2018-12-12T11:07:01.752Z,1018.39
2018-12-12T11:08:01.749Z,1018.45
2018-12-12T11:09:01.730Z,1018.40
2018-12-12T11:10:01.720Z,1018.40
2018-12-12T11:11:01.708Z,1018.45
2018-12-12T11:12:01.701Z,1018.43
2018-12-12T11:13:01.717Z,1018.46
2018-12-12T11:14:01.676Z,1018.45
2018-12-12T11:15:01.665Z,1018.45
2018-12-12T11:16:01.654Z,1018.44
2018-12-12T11:17:01.645Z,1018.44
2018-12-12T11:18:01.636Z,1018.48
2018-12-12T11:19:01.630Z,1018.44
2018-12-12T11:20:01.615Z,1018.43
2018-12-12T11:21:01.601Z,1018.44
2018-12-12T11:22:01.610Z,1018.45
2018-12-12T11:23:01.580Z,1018.44
2018-12-12T11:24:01.577Z,1018.49
2018-12-12T11:25:01.559Z,1018.48
2018-12-12T11:26:01.547Z,1018.44
2018-12-12T11:27:01.538Z,1018.49
2018-12-12T11:28:01.530Z,1018.48
2018-12-12T11:29:01.526Z,1018.43
2018-12-12T11:30:01.516Z,1018.50
2018-12-12T11:31:01.494Z,1018.46
2018-12-12T11:32:01.483Z,1018.48
2018-12-12T11:33:01.473Z,1018.49
2018-12-12T11:34:01.477Z,1018.44
2018-12-12T11:35:01.471Z,1018.47
2018-12-12T11:36:01.441Z,1018.47
2018-12-12T11:37:01.431Z,1018.49
2018-12-12T11:38:01.420Z,1018.48
2018-12-12T11:39:01.418Z,1018.49
2018-12-12T11:40:01.403Z,1018.41
2018-12-12T11:41:01.389Z,1018.48
2018-12-12T11:42:01.377Z,1018.43
2018-12-12T11:43:01.366Z,1018.46
2018-12-12T11:44:01.367Z,1018.49
2018-12-12T11:45:01.345Z,1018.50
2018-12-12T11:46:01.338Z,1018.49
2018-12-12T11:47:01.328Z,1018.51
2018-12-12T11:48:01.313Z,1018.53
2018-12-12T11:49:01.311Z,1018.52
2018-12-12T11:50:01.291Z,1018.49
2018-12-12T11:51:01.284Z,1018.51
2018-12-12T11:52:01.271Z,1018.47
2018-12-12T11:53:01.265Z,1018.47
2018-12-12T11:54:01.259Z,1018.46
2018-12-12T11:55:01.239Z,1018.49
2018-12-12T11:56:01.227Z,1018.50
2018-12-12T11:57:01.217Z,1018.49
2018-12-12T11:58:01.206Z,1018.53
2018-12-12T11:59:01.231Z,1018.47
2018-12-12T12:00:01.191Z,1018.52
2018-12-12T12:01:01.175Z,1018.48
2018-12-12T12:02:01.163Z,1018.47
2018-12-12T12:03:01.155Z,1018.48
2018-12-12T12:04:01.144Z,1018.48
2018-12-12T12:05:01.140Z,1018.43